createdAt,value
2022-12-18T00:00:30.495Z,12.98
2022-12-18T00:06:39.636Z,13.43
2022-12-18T00:09:42.317Z,14.73
2022-12-18T00:12:44.572Z,14.20
2022-12-18T00:15:47.418Z,13.52
2022-12-18T00:18:52.733Z,15.63
2022-12-18T00:21:55.466Z,14.00
2022-12-18T00:24:57.951Z,14.02
2022-12-18T00:28:00.675Z,14.18
2022-12-18T00:31:05.520Z,15.70
2022-12-18T00:34:10.366Z,13.98
2022-12-18T00:37:19.886Z,15.98
2022-12-18T00:40:26.547Z,13.02
2022-12-18T00:43:29.854Z,14.87
2022-12-18T00:46:32.733Z,13.98
2022-12-18T00:49:35.111Z,13.98
2022-12-18T00:52:37.797Z,15.13
2022-12-18T00:55:40.894Z,14.15
2022-12-18T00:58:43.430Z,14.43
2022-12-18T01:01:47.042Z,14.30
2022-12-18T01:04:49.803Z,13.45
2022-12-18T01:07:54.522Z,13.13
2022-12-18T01:10:57.066Z,12.95
2022-12-18T01:14:00.869Z,12.37
2022-12-18T01:17:04.684Z,12.95
2022-12-18T01:20:09.870Z,12.63
2022-12-18T01:23:12.417Z,13.38
2022-12-18T01:26:16.305Z,13.68
2022-12-18T01:29:19.295Z,12.82
2022-12-18T01:32:23.067Z,13.82
2022-12-18T01:35:25.855Z,14.15
2022-12-18T01:38:30.423Z,13.65
2022-12-18T01:41:53.899Z,13.68
2022-12-18T01:45:14.598Z,14.10
2022-12-18T01:48:18.710Z,13.60
2022-12-18T01:51:21.661Z,13.18
2022-12-18T01:54:24.298Z,13.65
2022-12-18T01:57:27.916Z,12.98
2022-12-18T02:03:33.249Z,13.00
2022-12-18T02:06:42.349Z,13.60
2022-12-18T02:10:14.264Z,12.93
2022-12-18T02:13:19.304Z,13.13
2022-12-18T02:16:45.827Z,13.27
2022-12-18T02:20:28.938Z,13.30
2022-12-18T02:23:42.272Z,14.15
2022-12-18T02:26:51.242Z,14.25
2022-12-18T02:29:59.043Z,13.82
2022-12-18T02:33:07.403Z,13.10
2022-12-18T02:36:11.944Z,13.70
2022-12-18T02:39:16.858Z,15.73
2022-12-18T02:42:20.714Z,13.70
2022-12-18T02:45:23.783Z,12.93
2022-12-18T02:48:32.552Z,13.93
2022-12-18T02:51:49.346Z,14.13
2022-12-18T02:55:01.514Z,15.43
2022-12-18T02:58:14.098Z,13.93
2022-12-18T03:01:38.087Z,14.73
2022-12-18T03:05:10.120Z,13.55
2022-12-18T03:08:21.070Z,13.73
2022-12-18T03:11:48.309Z,14.98
2022-12-18T03:15:05.559Z,13.82
2022-12-18T03:18:26.354Z,15.23
2022-12-18T03:21:50.742Z,13.73
2022-12-18T03:24:57.244Z,14.27
2022-12-18T03:28:04.166Z,14.70
2022-12-18T03:31:10.848Z,14.27
2022-12-18T03:34:27.468Z,14.30
2022-12-18T03:37:31.486Z,14.48
2022-12-18T03:40:52.163Z,14.63
2022-12-18T03:43:54.874Z,14.60
2022-12-18T03:47:14.348Z,14.80
2022-12-18T03:50:38.983Z,14.75
2022-12-18T03:53:51.003Z,14.27
2022-12-18T03:57:02.404Z,14.97
2022-12-18T04:00:12.000Z,15.43
2022-12-18T04:03:22.582Z,14.57
2022-12-18T04:06:30.466Z,14.95
2022-12-18T04:09:35.243Z,15.27
2022-12-18T04:12:38.825Z,15.27
2022-12-18T04:15:41.997Z,15.65
2022-12-18T04:18:45.136Z,14.77
2022-12-18T04:24:51.683Z,14.80
2022-12-18T04:27:55.346Z,14.90
2022-12-18T04:30:58.530Z,16.27
2022-12-18T04:34:00.923Z,15.27
2022-12-18T04:37:03.994Z,16.63
2022-12-18T04:40:07.358Z,15.18
2022-12-18T04:43:12.529Z,15.05
2022-12-18T04:46:15.755Z,15.00
2022-12-18T04:49:18.556Z,15.30
2022-12-18T04:52:20.794Z,16.40
2022-12-18T04:55:23.334Z,15.77
2022-12-18T04:58:25.603Z,16.42
2022-12-18T05:01:34.297Z,14.80
2022-12-18T05:04:37.127Z,16.10
2022-12-18T05:07:40.143Z,15.55
2022-12-18T05:13:46.802Z,14.30
2022-12-18T05:16:49.062Z,14.52
2022-12-18T05:19:51.663Z,15.52
2022-12-18T05:22:54.409Z,14.50
2022-12-18T05:25:59.794Z,14.98
2022-12-18T05:29:02.184Z,15.88
2022-12-18T05:32:05.008Z,15.07
2022-12-18T05:35:26.035Z,15.00
2022-12-18T05:38:30.040Z,14.05
2022-12-18T05:41:32.297Z,14.20
2022-12-18T05:44:35.045Z,14.48
2022-12-18T05:47:37.425Z,15.18
2022-12-18T05:50:42.077Z,14.87
2022-12-18T05:53:44.535Z,14.85
2022-12-18T05:56:48.883Z,16.00
2022-12-18T05:59:51.503Z,15.27
2022-12-18T06:02:54.151Z,13.98
2022-12-18T06:05:56.799Z,14.55
2022-12-18T06:08:59.125Z,15.75
2022-12-18T06:12:01.630Z,14.98
2022-12-18T06:15:04.540Z,14.98
2022-12-18T06:18:07.102Z,14.93
2022-12-18T06:21:09.385Z,14.77
2022-12-18T06:24:11.935Z,16.15
2022-12-18T06:27:14.541Z,14.80
2022-12-18T06:30:17.207Z,14.43
2022-12-18T06:33:19.639Z,15.20
2022-12-18T06:36:22.346Z,15.82
2022-12-18T06:39:25.130Z,19.00
2022-12-18T06:42:27.809Z,17.73
2022-12-18T06:45:30.099Z,16.60
2022-12-18T06:48:33.387Z,15.90
2022-12-18T06:51:35.683Z,16.80
2022-12-18T06:54:38.272Z,15.30
2022-12-18T06:57:40.533Z,16.95
2022-12-18T07:00:43.099Z,15.32
2022-12-18T07:03:46.547Z,15.50
2022-12-18T07:06:49.063Z,15.48
2022-12-18T07:09:51.950Z,16.10
2022-12-18T07:12:54.531Z,16.17
2022-12-18T07:15:56.849Z,32.90
2022-12-18T07:18:59.367Z,22.37
2022-12-18T07:22:02.338Z,17.05
2022-12-18T07:25:06.184Z,16.67
2022-12-18T07:28:12.793Z,16.98
2022-12-18T07:31:21.936Z,17.20
2022-12-18T07:34:24.498Z,16.90
2022-12-18T07:37:27.077Z,16.23
2022-12-18T07:40:29.312Z,17.30
2022-12-18T07:43:32.074Z,16.62
2022-12-18T07:46:34.328Z,15.80
2022-12-18T07:49:37.495Z,16.50
2022-12-18T07:52:39.773Z,15.82
2022-12-18T07:56:11.188Z,15.48
2022-12-18T07:59:06.162Z,15.80
2022-12-18T08:02:09.198Z,16.55
2022-12-18T08:05:11.961Z,15.60
2022-12-18T08:08:14.194Z,16.05
2022-12-18T08:11:16.788Z,16.62
2022-12-18T08:14:19.050Z,16.50
2022-12-18T08:17:22.516Z,16.98
2022-12-18T08:20:24.913Z,23.00
2022-12-18T08:23:28.802Z,18.70
2022-12-18T08:26:32.376Z,17.23
2022-12-18T08:29:34.980Z,17.02
2022-12-18T08:32:37.503Z,17.75
2022-12-18T08:35:45.588Z,18.65
2022-12-18T08:38:48.608Z,16.92
2022-12-18T08:42:11.537Z,17.05
2022-12-18T08:45:13.890Z,18.02
2022-12-18T08:48:21.862Z,18.33
2022-12-18T08:51:24.817Z,18.02
2022-12-18T08:54:27.550Z,18.58
2022-12-18T08:57:29.843Z,18.05
2022-12-18T09:00:32.365Z,17.75
2022-12-18T09:03:34.705Z,18.85
2022-12-18T09:06:37.413Z,18.90
2022-12-18T09:09:40.493Z,19.43
2022-12-18T09:12:43.259Z,19.60
2022-12-18T09:15:47.986Z,18.60
2022-12-18T09:18:51.994Z,18.15
2022-12-18T09:21:54.202Z,20.65
2022-12-18T09:24:56.719Z,19.85
2022-12-18T09:27:58.967Z,19.67
2022-12-18T09:31:08.637Z,19.87
2022-12-18T09:34:11.156Z,21.02
2022-12-18T09:37:13.713Z,20.60
2022-12-18T09:40:19.055Z,20.42
2022-12-18T09:43:29.070Z,20.65
2022-12-18T09:46:37.261Z,20.80
2022-12-18T09:49:49.659Z,21.75
2022-12-18T09:52:56.974Z,21.35
2022-12-18T09:56:02.680Z,22.23
2022-12-18T09:59:05.989Z,22.48
2022-12-18T10:02:22.358Z,21.25
2022-12-18T10:05:40.632Z,22.42
2022-12-18T10:09:12.658Z,21.73
2022-12-18T10:12:26.135Z,22.10
2022-12-18T10:15:37.449Z,22.58
2022-12-18T10:18:57.192Z,21.00
2022-12-18T10:22:37.462Z,21.00
2022-12-18T10:26:06.194Z,22.37
2022-12-18T10:29:13.635Z,22.58
2022-12-18T10:32:33.951Z,21.90
2022-12-18T10:35:37.310Z,22.95
2022-12-18T10:38:40.385Z,23.12
2022-12-18T10:41:42.900Z,22.27
2022-12-18T10:44:45.787Z,21.23
2022-12-18T10:47:50.079Z,22.52
2022-12-18T10:54:26.011Z,23.30
2022-12-18T10:57:37.000Z,22.62
2022-12-18T11:00:39.454Z,23.15
2022-12-18T11:03:47.905Z,22.80
2022-12-18T11:07:00.819Z,22.13
2022-12-18T11:10:03.771Z,24.13
2022-12-18T11:13:21.634Z,24.87
2022-12-18T11:16:25.357Z,24.33
2022-12-18T11:19:40.792Z,23.23
2022-12-18T11:22:43.782Z,21.90
2022-12-18T11:25:56.069Z,23.17
2022-12-18T11:29:18.338Z,23.85
2022-12-18T11:32:31.206Z,22.00
2022-12-18T11:35:39.411Z,22.05
2022-12-18T11:38:45.295Z,22.67
2022-12-18T11:42:17.442Z,21.55
2022-12-18T11:45:29.856Z,21.42
2022-12-18T11:48:41.595Z,20.23
2022-12-18T11:51:59.519Z,21.08
2022-12-18T11:55:12.320Z,21.33
2022-12-18T11:58:33.360Z,21.70
2022-12-18T12:01:48.245Z,20.73
2022-12-18T12:05:20.044Z,21.73
2022-12-18T12:08:27.946Z,21.05
2022-12-18T12:11:54.621Z,22.33
2022-12-18T12:15:20.532Z,21.20
2022-12-18T12:18:37.719Z,21.98
2022-12-18T12:22:11.881Z,21.40
2022-12-18T12:25:54.901Z,20.58
2022-12-18T12:29:22.935Z,20.77
2022-12-18T12:32:47.920Z,22.15
2022-12-18T12:36:26.056Z,21.50
2022-12-18T12:39:37.556Z,21.27
2022-12-18T12:43:05.213Z,20.45
2022-12-18T12:46:12.716Z,21.90
2022-12-18T12:49:23.874Z,20.35
2022-12-18T12:52:41.445Z,21.05
2022-12-18T12:55:45.880Z,18.90
2022-12-18T13:07:29.595Z,14.93
2022-12-18T13:10:39.444Z,13.75
2022-12-18T13:13:55.133Z,12.90
2022-12-18T13:17:18.114Z,14.07
2022-12-18T13:20:20.642Z,15.07
2022-12-18T13:23:25.840Z,14.27
2022-12-18T13:26:49.474Z,14.98
2022-12-18T13:29:52.845Z,14.32
2022-12-18T13:33:27.997Z,14.10
2022-12-18T13:36:33.993Z,14.00
2022-12-18T13:39:36.687Z,13.73
2022-12-18T13:42:59.101Z,15.45
2022-12-18T13:46:18.827Z,14.75
2022-12-18T13:49:21.270Z,15.80
2022-12-18T13:52:27.595Z,17.75
2022-12-18T13:55:30.413Z,16.42
2022-12-18T13:58:32.965Z,19.00
2022-12-18T14:01:35.899Z,18.40
2022-12-18T14:04:38.710Z,18.42
2022-12-18T14:07:42.978Z,19.25
2022-12-18T14:10:52.237Z,20.52
2022-12-18T14:13:54.549Z,24.40
2022-12-18T14:16:57.577Z,23.48
2022-12-18T14:20:01.217Z,25.00
2022-12-18T14:23:03.856Z,25.92
2022-12-18T14:26:28.969Z,26.08
2022-12-18T14:29:32.092Z,23.77
2022-12-18T14:32:34.463Z,25.55
2022-12-18T14:35:40.474Z,25.12
2022-12-18T14:38:42.832Z,24.12
2022-12-18T14:41:45.973Z,23.05
2022-12-18T14:45:12.916Z,20.75
2022-12-18T14:48:41.496Z,20.15
2022-12-18T14:51:50.031Z,19.73
2022-12-18T14:54:53.222Z,18.02
2022-12-18T14:57:57.402Z,18.40
2022-12-18T15:01:00.011Z,17.95
2022-12-18T15:04:04.669Z,17.75
2022-12-18T15:07:22.360Z,18.60
2022-12-18T15:10:27.048Z,22.00
2022-12-18T15:13:31.052Z,22.23
2022-12-18T15:16:34.288Z,23.33
2022-12-18T15:19:41.719Z,23.40
2022-12-18T15:22:44.012Z,23.62
2022-12-18T15:25:48.192Z,23.73
2022-12-18T15:28:52.959Z,21.95
2022-12-18T15:32:04.389Z,24.37
2022-12-18T15:35:20.714Z,22.75
2022-12-18T15:38:23.294Z,23.73
2022-12-18T15:41:26.266Z,23.00
2022-12-18T15:44:29.222Z,22.92
2022-12-18T15:47:31.651Z,22.77
2022-12-18T15:50:34.255Z,22.52
2022-12-18T15:53:36.493Z,22.52
2022-12-18T15:56:57.551Z,22.55
2022-12-18T16:00:01.204Z,23.12
2022-12-18T16:03:05.384Z,24.12
2022-12-18T16:06:10.269Z,21.87
2022-12-18T16:09:12.575Z,20.55
2022-12-18T16:12:21.933Z,21.15
2022-12-18T16:15:24.905Z,22.15
2022-12-18T16:18:27.829Z,21.55
2022-12-18T16:21:33.962Z,23.73
2022-12-18T16:24:37.311Z,22.08
2022-12-18T16:27:39.659Z,23.52
2022-12-18T16:30:42.991Z,23.35
2022-12-18T16:33:45.312Z,23.27
2022-12-18T16:36:47.969Z,24.45
2022-12-18T16:39:50.360Z,23.25
2022-12-18T16:42:52.896Z,22.13
2022-12-18T16:45:58.279Z,22.58
2022-12-18T16:49:01.173Z,23.83
2022-12-18T16:52:05.185Z,23.92
2022-12-18T16:55:08.134Z,22.17
2022-12-18T16:58:11.145Z,23.08
2022-12-18T17:01:13.727Z,24.27
2022-12-18T17:04:17.437Z,21.95
2022-12-18T17:10:22.180Z,22.40
2022-12-18T17:13:27.597Z,23.27
2022-12-18T17:16:40.341Z,23.92
2022-12-18T17:19:44.856Z,22.92
2022-12-18T17:22:49.195Z,24.23
2022-12-18T17:25:56.960Z,23.75
2022-12-18T17:28:59.573Z,27.95
2022-12-18T17:32:02.326Z,24.00
2022-12-18T17:35:07.337Z,22.70
2022-12-18T17:38:10.920Z,22.75
2022-12-18T17:41:13.353Z,22.37
2022-12-18T17:44:17.768Z,22.10
2022-12-18T17:47:20.679Z,22.48
2022-12-18T17:50:23.310Z,23.05
2022-12-18T17:53:25.529Z,23.10
2022-12-18T17:56:28.167Z,24.30
2022-12-18T17:59:31.549Z,24.47
2022-12-18T18:02:34.531Z,23.92
2022-12-18T18:05:37.228Z,23.90
2022-12-18T18:08:39.511Z,23.70
2022-12-18T18:12:00.984Z,25.05
2022-12-18T18:15:06.018Z,25.27
2022-12-18T18:18:08.892Z,24.30
2022-12-18T18:21:13.553Z,24.12
2022-12-18T18:24:23.270Z,23.52
2022-12-18T18:27:25.660Z,24.67
2022-12-18T18:30:29.028Z,23.87
2022-12-18T18:33:31.845Z,25.25
2022-12-18T18:36:34.408Z,25.65
2022-12-18T18:39:37.196Z,25.08
2022-12-18T18:42:39.796Z,25.55
2022-12-18T18:45:42.125Z,25.20
2022-12-18T18:48:47.743Z,23.67
2022-12-18T18:51:50.968Z,24.10
2022-12-18T18:55:12.140Z,23.98
2022-12-18T18:58:15.415Z,26.08
2022-12-18T19:01:20.929Z,23.73
2022-12-18T19:04:23.401Z,22.73
2022-12-18T19:07:30.647Z,23.38
2022-12-18T19:10:33.415Z,23.20
2022-12-18T19:13:35.995Z,23.58
2022-12-18T19:16:38.802Z,22.52
2022-12-18T19:19:42.703Z,24.63
2022-12-18T19:22:54.760Z,22.45
2022-12-18T19:26:26.894Z,22.62
2022-12-18T19:29:27.646Z,23.00
2022-12-18T19:32:31.409Z,24.50
2022-12-18T19:35:34.410Z,23.75
2022-12-18T19:38:37.406Z,26.05
2022-12-18T19:41:42.228Z,25.55
2022-12-18T19:44:45.044Z,26.37
2022-12-18T19:47:48.307Z,25.75
2022-12-18T19:50:50.890Z,28.62
2022-12-18T19:53:58.445Z,28.20
2022-12-18T19:57:01.638Z,27.90
2022-12-18T20:00:04.562Z,27.95
2022-12-18T20:03:23.490Z,30.67
2022-12-18T20:06:51.665Z,30.67
2022-12-18T20:10:01.444Z,31.30
2022-12-18T20:13:08.070Z,32.30
2022-12-18T20:16:10.858Z,31.37
2022-12-18T20:19:14.327Z,32.33
2022-12-18T20:22:18.148Z,30.48
2022-12-18T20:25:20.859Z,31.35
2022-12-18T20:28:24.323Z,32.15
2022-12-18T20:34:29.352Z,32.72
2022-12-18T20:37:32.236Z,34.40
2022-12-18T20:40:35.342Z,34.60
2022-12-18T20:43:39.060Z,33.72
2022-12-18T20:46:41.712Z,34.05
2022-12-18T20:49:45.546Z,33.85
2022-12-18T20:52:48.645Z,34.85
2022-12-18T20:55:51.177Z,34.63
2022-12-18T20:58:57.637Z,34.63
2022-12-18T21:02:00.405Z,34.67
2022-12-18T21:05:02.862Z,35.35
2022-12-18T21:08:05.642Z,34.47
2022-12-18T21:11:38.924Z,31.92
2022-12-18T21:14:42.143Z,34.08
2022-12-18T21:17:45.373Z,32.13
2022-12-18T21:20:48.025Z,33.85
2022-12-18T21:23:51.173Z,31.60
2022-12-18T21:26:53.999Z,30.12
2022-12-18T21:29:56.428Z,30.90
2022-12-18T21:32:58.941Z,29.52
2022-12-18T21:36:07.126Z,31.48
2022-12-18T21:39:10.302Z,32.28
2022-12-18T21:42:31.514Z,32.58
2022-12-18T21:45:34.258Z,31.02
2022-12-18T21:48:39.056Z,31.75
2022-12-18T21:51:41.683Z,31.65
2022-12-18T21:54:43.983Z,34.92
2022-12-18T21:57:46.508Z,33.47
2022-12-18T22:00:49.804Z,35.72
2022-12-18T22:03:52.450Z,33.95
2022-12-18T22:06:55.177Z,34.40
2022-12-18T22:09:57.874Z,36.47
2022-12-18T22:16:04.087Z,33.78
2022-12-18T22:19:06.857Z,34.17
2022-12-18T22:22:09.394Z,34.20
2022-12-18T22:25:11.765Z,35.60
2022-12-18T22:28:33.263Z,41.97
2022-12-18T22:31:36.021Z,37.20
2022-12-18T22:34:39.496Z,36.10
2022-12-18T22:37:41.747Z,35.93
2022-12-18T22:40:44.349Z,34.05
2022-12-18T22:43:46.586Z,35.22
2022-12-18T22:47:02.875Z,36.78
2022-12-18T22:50:12.791Z,35.55
2022-12-18T22:53:15.353Z,36.03
2022-12-18T22:56:21.077Z,36.88
2022-12-18T22:59:24.693Z,35.42
2022-12-18T23:02:27.062Z,35.10
2022-12-18T23:05:30.953Z,35.85
2022-12-18T23:08:36.620Z,35.85
2022-12-18T23:11:39.300Z,35.47
2022-12-18T23:14:41.555Z,34.60
2022-12-18T23:17:44.119Z,34.45
2022-12-18T23:20:46.357Z,33.95
2022-12-18T23:23:50.610Z,32.80
2022-12-18T23:26:52.984Z,32.38
2022-12-18T23:29:55.573Z,33.42
2022-12-18T23:33:01.072Z,33.72
2022-12-18T23:36:04.643Z,34.00
2022-12-18T23:39:07.119Z,34.93
2022-12-18T23:42:09.674Z,33.08
2022-12-18T23:45:17.806Z,33.60
2022-12-18T23:48:21.232Z,31.80
2022-12-18T23:51:25.654Z,31.80
2022-12-18T23:54:33.050Z,30.08
2022-12-18T23:57:38.476Z,31.08
